sensor_id;sensor_type;location;lat;lon;timestamp;P1;durP1;ratioP1;P2;durP2;ratioP2
14883;SDS011;7534;50.762;7.000;2023-08-20T00:01:06;11.85;;;10.65;;
14883;SDS011;7534;50.762;7.000;2023-08-20T00:03:37;11.80;;;10.65;;
14883;SDS011;7534;50.762;7.000;2023-08-20T00:06:05;11.50;;;10.40;;
14883;SDS011;7534;50.762;7.000;2023-08-20T00:08:31;12.15;;;10.80;;
14883;SDS011;7534;50.762;7.000;2023-08-20T00:10:57;10.82;;;9.82;;
14883;SDS011;7534;50.762;7.000;2023-08-20T00:13:22;12.05;;;10.85;;
14883;SDS011;7534;50.762;7.000;2023-08-20T00:15:48;10.57;;;9.57;;
14883;SDS011;7534;50.762;7.000;2023-08-20T00:18:14;12.43;;;11.07;;
14883;SDS011;7534;50.762;7.000;2023-08-20T00:20:40;11.43;;;10.30;;
14883;SDS011;7534;50.762;7.000;2023-08-20T00:23:06;12.48;;;10.90;;
14883;SDS011;7534;50.762;7.000;2023-08-20T00:25:33;11.75;;;10.55;;
14883;SDS011;7534;50.762;7.000;2023-08-20T00:27:59;11.15;;;10.13;;
14883;SDS011;7534;50.762;7.000;2023-08-20T00:30:24;13.02;;;10.70;;
14883;SDS011;7534;50.762;7.000;2023-08-20T00:32:50;11.13;;;10.05;;
14883;SDS011;7534;50.762;7.000;2023-08-20T00:35:16;11.27;;;10.18;;
14883;SDS011;7534;50.762;7.000;2023-08-20T00:37:41;11.60;;;10.40;;
14883;SDS011;7534;50.762;7.000;2023-08-20T00:40:09;11.50;;;10.30;;
14883;SDS011;7534;50.762;7.000;2023-08-20T00:42:36;11.90;;;10.57;;
14883;SDS011;7534;50.762;7.000;2023-08-20T00:45:02;10.63;;;9.43;;
14883;SDS011;7534;50.762;7.000;2023-08-20T00:47:29;10.32;;;9.30;;
14883;SDS011;7534;50.762;7.000;2023-08-20T00:49:55;10.40;;;9.10;;
14883;SDS011;7534;50.762;7.000;2023-08-20T00:52:21;11.05;;;9.70;;
14883;SDS011;7534;50.762;7.000;2023-08-20T00:54:47;10.20;;;9.07;;
14883;SDS011;7534;50.762;7.000;2023-08-20T00:57:15;12.82;;;10.48;;
14883;SDS011;7534;50.762;7.000;2023-08-20T00:59:44;10.15;;;9.13;;
14883;SDS011;7534;50.762;7.000;2023-08-20T01:02:16;10.60;;;9.60;;
14883;SDS011;7534;50.762;7.000;2023-08-20T01:04:43;10.48;;;9.43;;
14883;SDS011;7534;50.762;7.000;2023-08-20T01:07:27;10.07;;;9.07;;
14883;SDS011;7534;50.762;7.000;2023-08-20T01:12:50;10.50;;;9.40;;
14883;SDS011;7534;50.762;7.000;2023-08-20T01:15:17;11.68;;;9.80;;
14883;SDS011;7534;50.762;7.000;2023-08-20T01:17:43;10.85;;;9.77;;
14883;SDS011;7534;50.762;7.000;2023-08-20T01:20:11;11.32;;;9.32;;
14883;SDS011;7534;50.762;7.000;2023-08-20T01:26:13;11.32;;;10.07;;
14883;SDS011;7534;50.762;7.000;2023-08-20T01:29:15;11.55;;;9.98;;
14883;SDS011;7534;50.762;7.000;2023-08-20T01:31:41;11.43;;;10.23;;
14883;SDS011;7534;50.762;7.000;2023-08-20T01:34:10;11.55;;;10.25;;
14883;SDS011;7534;50.762;7.000;2023-08-20T01:36:35;11.25;;;10.15;;
14883;SDS011;7534;50.762;7.000;2023-08-20T01:39:03;13.60;;;10.00;;
14883;SDS011;7534;50.762;7.000;2023-08-20T01:41:29;10.77;;;9.60;;
14883;SDS011;7534;50.762;7.000;2023-08-20T01:43:56;11.05;;;9.95;;
14883;SDS011;7534;50.762;7.000;2023-08-20T01:46:21;11.25;;;10.10;;
14883;SDS011;7534;50.762;7.000;2023-08-20T01:48:47;11.57;;;10.40;;
14883;SDS011;7534;50.762;7.000;2023-08-20T01:51:13;12.15;;;10.55;;
14883;SDS011;7534;50.762;7.000;2023-08-20T01:53:38;14.10;;;10.15;;
14883;SDS011;7534;50.762;7.000;2023-08-20T01:56:04;12.30;;;10.80;;
14883;SDS011;7534;50.762;7.000;2023-08-20T01:58:38;11.40;;;10.20;;
14883;SDS011;7534;50.762;7.000;2023-08-20T02:01:04;11.82;;;10.57;;
14883;SDS011;7534;50.762;7.000;2023-08-20T02:03:29;15.10;;;11.10;;
14883;SDS011;7534;50.762;7.000;2023-08-20T02:05:56;13.45;;;10.98;;
14883;SDS011;7534;50.762;7.000;2023-08-20T02:08:21;12.73;;;11.38;;
14883;SDS011;7534;50.762;7.000;2023-08-20T02:10:47;12.77;;;11.40;;
14883;SDS011;7534;50.762;7.000;2023-08-20T02:13:13;13.00;;;11.70;;
14883;SDS011;7534;50.762;7.000;2023-08-20T02:15:39;15.93;;;11.32;;
14883;SDS011;7534;50.762;7.000;2023-08-20T02:18:05;14.75;;;12.15;;
14883;SDS011;7534;50.762;7.000;2023-08-20T02:20:30;13.43;;;12.02;;
14883;SDS011;7534;50.762;7.000;2023-08-20T02:22:56;14.68;;;12.65;;
14883;SDS011;7534;50.762;7.000;2023-08-20T02:25:23;14.15;;;11.52;;
14883;SDS011;7534;50.762;7.000;2023-08-20T02:27:49;16.75;;;12.38;;
14883;SDS011;7534;50.762;7.000;2023-08-20T02:30:16;13.23;;;11.77;;
14883;SDS011;7534;50.762;7.000;2023-08-20T02:32:41;13.25;;;11.77;;
14883;SDS011;7534;50.762;7.000;2023-08-20T02:35:07;12.75;;;10.93;;
14883;SDS011;7534;50.762;7.000;2023-08-20T02:37:33;12.60;;;11.27;;
14883;SDS011;7534;50.762;7.000;2023-08-20T02:39:59;13.63;;;11.32;;
14883;SDS011;7534;50.762;7.000;2023-08-20T02:42:25;15.77;;;12.65;;
14883;SDS011;7534;50.762;7.000;2023-08-20T02:44:51;13.30;;;11.88;;
14883;SDS011;7534;50.762;7.000;2023-08-20T02:47:17;13.75;;;11.07;;
14883;SDS011;7534;50.762;7.000;2023-08-20T02:49:43;12.45;;;11.15;;
14883;SDS011;7534;50.762;7.000;2023-08-20T02:52:08;14.48;;;12.55;;
14883;SDS011;7534;50.762;7.000;2023-08-20T02:54:34;11.93;;;10.73;;
14883;SDS011;7534;50.762;7.000;2023-08-20T02:56:59;13.77;;;11.13;;
14883;SDS011;7534;50.762;7.000;2023-08-20T02:59:25;12.25;;;10.95;;
14883;SDS011;7534;50.762;7.000;2023-08-20T03:01:51;12.48;;;10.68;;
14883;SDS011;7534;50.762;7.000;2023-08-20T03:04:17;12.60;;;11.27;;
14883;SDS011;7534;50.762;7.000;2023-08-20T03:06:42;12.15;;;10.93;;
14883;SDS011;7534;50.762;7.000;2023-08-20T03:09:09;14.27;;;12.25;;
14883;SDS011;7534;50.762;7.000;2023-08-20T03:11:34;13.90;;;12.50;;
14883;SDS011;7534;50.762;7.000;2023-08-20T03:14:00;12.13;;;10.77;;
14883;SDS011;7534;50.762;7.000;2023-08-20T03:16:26;12.68;;;10.90;;
14883;SDS011;7534;50.762;7.000;2023-08-20T03:18:51;12.85;;;11.38;;
14883;SDS011;7534;50.762;7.000;2023-08-20T03:21:17;12.23;;;10.95;;
14883;SDS011;7534;50.762;7.000;2023-08-20T03:23:43;11.68;;;10.57;;
14883;SDS011;7534;50.762;7.000;2023-08-20T03:26:08;16.20;;;11.18;;
14883;SDS011;7534;50.762;7.000;2023-08-20T03:28:34;11.50;;;10.13;;
14883;SDS011;7534;50.762;7.000;2023-08-20T03:31:00;11.48;;;10.27;;
14883;SDS011;7534;50.762;7.000;2023-08-20T03:33:27;12.48;;;10.35;;
14883;SDS011;7534;50.762;7.000;2023-08-20T03:35:52;13.70;;;10.90;;
14883;SDS011;7534;50.762;7.000;2023-08-20T03:38:18;10.98;;;9.88;;
14883;SDS011;7534;50.762;7.000;2023-08-20T03:40:44;12.45;;;11.15;;
14883;SDS011;7534;50.762;7.000;2023-08-20T03:43:10;11.82;;;10.63;;
14883;SDS011;7534;50.762;7.000;2023-08-20T03:45:35;13.85;;;10.73;;
14883;SDS011;7534;50.762;7.000;2023-08-20T03:48:01;11.73;;;10.55;;
14883;SDS011;7534;50.762;7.000;2023-08-20T03:50:27;12.38;;;11.02;;
14883;SDS011;7534;50.762;7.000;2023-08-20T03:52:53;11.73;;;10.50;;
14883;SDS011;7534;50.762;7.000;2023-08-20T03:55:18;12.95;;;10.50;;
14883;SDS011;7534;50.762;7.000;2023-08-20T03:57:44;11.98;;;10.45;;
14883;SDS011;7534;50.762;7.000;2023-08-20T04:00:10;11.63;;;10.43;;
14883;SDS011;7534;50.762;7.000;2023-08-20T04:02:37;11.48;;;10.40;;
14883;SDS011;7534;50.762;7.000;2023-08-20T04:05:03;11.45;;;9.95;;
14883;SDS011;7534;50.762;7.000;2023-08-20T04:07:29;12.30;;;9.95;;
14883;SDS011;7534;50.762;7.000;2023-08-20T04:09:55;11.50;;;10.15;;
14883;SDS011;7534;50.762;7.000;2023-08-20T04:12:21;10.73;;;9.65;;
14883;SDS011;7534;50.762;7.000;2023-08-20T04:14:46;12.07;;;9.90;;
14883;SDS011;7534;50.762;7.000;2023-08-20T04:17:12;11.55;;;9.30;;
14883;SDS011;7534;50.762;7.000;2023-08-20T04:19:37;10.35;;;9.23;;
14883;SDS011;7534;50.762;7.000;2023-08-20T04:22:03;10.75;;;9.38;;
14883;SDS011;7534;50.762;7.000;2023-08-20T04:24:29;9.75;;;8.75;;
14883;SDS011;7534;50.762;7.000;2023-08-20T04:26:55;10.48;;;8.95;;
14883;SDS011;7534;50.762;7.000;2023-08-20T04:29:22;11.63;;;9.65;;
14883;SDS011;7534;50.762;7.000;2023-08-20T04:31:47;10.80;;;8.70;;
14883;SDS011;7534;50.762;7.000;2023-08-20T04:34:13;11.43;;;9.10;;
14883;SDS011;7534;50.762;7.000;2023-08-20T04:36:38;9.63;;;8.63;;
14883;SDS011;7534;50.762;7.000;2023-08-20T04:39:04;9.30;;;8.40;;
14883;SDS011;7534;50.762;7.000;2023-08-20T04:41:30;9.70;;;8.77;;
14883;SDS011;7534;50.762;7.000;2023-08-20T04:43:56;12.40;;;9.30;;
14883;SDS011;7534;50.762;7.000;2023-08-20T04:46:21;9.73;;;8.73;;
14883;SDS011;7534;50.762;7.000;2023-08-20T04:48:47;8.90;;;8.00;;
14883;SDS011;7534;50.762;7.000;2023-08-20T04:51:13;10.60;;;9.57;;
14883;SDS011;7534;50.762;7.000;2023-08-20T04:53:38;12.27;;;8.65;;
14883;SDS011;7534;50.762;7.000;2023-08-20T04:56:04;9.75;;;8.75;;
14883;SDS011;7534;50.762;7.000;2023-08-20T04:58:30;9.68;;;8.35;;
14883;SDS011;7534;50.762;7.000;2023-08-20T05:00:55;9.80;;;8.80;;
14883;SDS011;7534;50.762;7.000;2023-08-20T05:03:21;9.30;;;8.32;;
14883;SDS011;7534;50.762;7.000;2023-08-20T05:05:50;11.18;;;9.23;;
14883;SDS011;7534;50.762;7.000;2023-08-20T05:08:16;11.18;;;8.82;;
14883;SDS011;7534;50.762;7.000;2023-08-20T05:10:42;9.38;;;8.13;;
14883;SDS011;7534;50.762;7.000;2023-08-20T05:13:08;10.02;;;8.48;;
14883;SDS011;7534;50.762;7.000;2023-08-20T05:15:34;10.35;;;8.77;;
14883;SDS011;7534;50.762;7.000;2023-08-20T05:18:00;8.70;;;7.80;;
14883;SDS011;7534;50.762;7.000;2023-08-20T05:20:26;12.02;;;8.57;;
14883;SDS011;7534;50.762;7.000;2023-08-20T05:22:51;8.55;;;7.63;;
14883;SDS011;7534;50.762;7.000;2023-08-20T05:25:17;9.50;;;7.85;;
14883;SDS011;7534;50.762;7.000;2023-08-20T05:27:43;8.65;;;7.82;;
14883;SDS011;7534;50.762;7.000;2023-08-20T05:30:08;9.23;;;7.72;;
14883;SDS011;7534;50.762;7.000;2023-08-20T05:32:35;8.73;;;7.68;;
14883;SDS011;7534;50.762;7.000;2023-08-20T05:35:00;8.98;;;7.78;;
14883;SDS011;7534;50.762;7.000;2023-08-20T05:37:26;8.88;;;7.70;;
14883;SDS011;7534;50.762;7.000;2023-08-20T05:39:52;9.43;;;7.53;;
14883;SDS011;7534;50.762;7.000;2023-08-20T05:42:18;11.70;;;8.35;;
14883;SDS011;7534;50.762;7.000;2023-08-20T05:44:44;9.35;;;8.30;;
14883;SDS011;7534;50.762;7.000;2023-08-20T05:47:09;11.30;;;8.05;;
14883;SDS011;7534;50.762;7.000;2023-08-20T05:49:35;8.90;;;8.05;;
14883;SDS011;7534;50.762;7.000;2023-08-20T05:52:01;13.18;;;9.30;;
14883;SDS011;7534;50.762;7.000;2023-08-20T05:54:27;11.80;;;8.90;;
14883;SDS011;7534;50.762;7.000;2023-08-20T05:56:53;12.00;;;9.32;;
14883;SDS011;7534;50.762;7.000;2023-08-20T05:59:19;11.88;;;8.88;;
14883;SDS011;7534;50.762;7.000;2023-08-20T06:01:44;11.63;;;9.38;;
14883;SDS011;7534;50.762;7.000;2023-08-20T06:04:10;9.75;;;8.73;;
14883;SDS011;7534;50.762;7.000;2023-08-20T06:06:36;14.13;;;9.77;;
14883;SDS011;7534;50.762;7.000;2023-08-20T06:09:02;12.05;;;8.48;;
14883;SDS011;7534;50.762;7.000;2023-08-20T06:11:27;11.20;;;9.10;;
14883;SDS011;7534;50.762;7.000;2023-08-20T06:13:53;11.57;;;9.43;;
14883;SDS011;7534;50.762;7.000;2023-08-20T06:16:19;10.50;;;9.40;;
14883;SDS011;7534;50.762;7.000;2023-08-20T06:18:45;11.00;;;9.32;;
14883;SDS011;7534;50.762;7.000;2023-08-20T06:21:10;13.85;;;9.93;;
14883;SDS011;7534;50.762;7.000;2023-08-20T06:23:36;12.98;;;10.30;;
14883;SDS011;7534;50.762;7.000;2023-08-20T06:26:02;12.70;;;10.15;;
14883;SDS011;7534;50.762;7.000;2023-08-20T06:28:27;13.65;;;10.73;;
14883;SDS011;7534;50.762;7.000;2023-08-20T06:30:53;13.45;;;10.65;;
14883;SDS011;7534;50.762;7.000;2023-08-20T06:33:19;12.07;;;10.35;;
14883;SDS011;7534;50.762;7.000;2023-08-20T06:35:45;14.50;;;11.30;;
14883;SDS011;7534;50.762;7.000;2023-08-20T06:38:10;16.70;;;13.60;;
14883;SDS011;7534;50.762;7.000;2023-08-20T06:40:36;15.80;;;12.30;;
14883;SDS011;7534;50.762;7.000;2023-08-20T06:43:02;14.77;;;12.13;;
14883;SDS011;7534;50.762;7.000;2023-08-20T06:45:29;15.95;;;11.85;;
14883;SDS011;7534;50.762;7.000;2023-08-20T06:47:56;12.65;;;11.30;;
14883;SDS011;7534;50.762;7.000;2023-08-20T06:50:22;11.27;;;10.07;;
14883;SDS011;7534;50.762;7.000;2023-08-20T06:52:48;15.05;;;11.15;;
14883;SDS011;7534;50.762;7.000;2023-08-20T06:55:14;12.25;;;11.05;;
14883;SDS011;7534;50.762;7.000;2023-08-20T06:57:40;13.60;;;12.15;;
14883;SDS011;7534;50.762;7.000;2023-08-20T07:00:06;13.10;;;11.20;;
14883;SDS011;7534;50.762;7.000;2023-08-20T07:02:32;13.68;;;12.27;;
14883;SDS011;7534;50.762;7.000;2023-08-20T07:04:57;13.85;;;12.23;;
14883;SDS011;7534;50.762;7.000;2023-08-20T07:07:23;13.90;;;12.50;;
14883;SDS011;7534;50.762;7.000;2023-08-20T07:09:49;14.65;;;13.15;;
14883;SDS011;7534;50.762;7.000;2023-08-20T07:12:15;13.80;;;12.48;;
14883;SDS011;7534;50.762;7.000;2023-08-20T07:14:41;17.85;;;14.13;;
14883;SDS011;7534;50.762;7.000;2023-08-20T07:17:07;15.45;;;13.98;;
14883;SDS011;7534;50.762;7.000;2023-08-20T07:19:33;14.30;;;12.80;;
14883;SDS011;7534;50.762;7.000;2023-08-20T07:21:58;14.85;;;13.35;;
14883;SDS011;7534;50.762;7.000;2023-08-20T07:24:24;14.55;;;12.93;;
14883;SDS011;7534;50.762;7.000;2023-08-20T07:26:51;14.68;;;13.27;;
14883;SDS011;7534;50.762;7.000;2023-08-20T07:29:20;11.57;;;10.50;;
14883;SDS011;7534;50.762;7.000;2023-08-20T07:31:48;13.95;;;12.50;;
14883;SDS011;7534;50.762;7.000;2023-08-20T07:34:14;12.18;;;10.90;;
14883;SDS011;7534;50.762;7.000;2023-08-20T07:36:40;12.00;;;10.90;;
14883;SDS011;7534;50.762;7.000;2023-08-20T07:39:07;14.57;;;12.05;;
14883;SDS011;7534;50.762;7.000;2023-08-20T07:41:33;14.90;;;13.50;;
14883;SDS011;7534;50.762;7.000;2023-08-20T07:43:59;13.25;;;11.90;;
14883;SDS011;7534;50.762;7.000;2023-08-20T07:46:26;16.02;;;14.52;;
14883;SDS011;7534;50.762;7.000;2023-08-20T07:48:52;10.57;;;9.57;;
14883;SDS011;7534;50.762;7.000;2023-08-20T07:51:18;13.45;;;12.13;;
14883;SDS011;7534;50.762;7.000;2023-08-20T07:53:44;12.02;;;10.82;;
14883;SDS011;7534;50.762;7.000;2023-08-20T07:56:10;11.98;;;10.77;;
14883;SDS011;7534;50.762;7.000;2023-08-20T07:58:36;11.43;;;10.43;;
14883;SDS011;7534;50.762;7.000;2023-08-20T08:01:02;12.10;;;10.80;;
14883;SDS011;7534;50.762;7.000;2023-08-20T08:03:29;10.85;;;9.88;;
14883;SDS011;7534;50.762;7.000;2023-08-20T08:05:55;10.30;;;9.30;;
14883;SDS011;7534;50.762;7.000;2023-08-20T08:08:21;11.13;;;10.13;;
14883;SDS011;7534;50.762;7.000;2023-08-20T08:10:48;16.70;;;15.25;;
14883;SDS011;7534;50.762;7.000;2023-08-20T08:13:17;10.30;;;9.40;;
14883;SDS011;7534;50.762;7.000;2023-08-20T08:15:46;10.95;;;9.95;;
14883;SDS011;7534;50.762;7.000;2023-08-20T08:18:12;11.32;;;10.43;;
14883;SDS011;7534;50.762;7.000;2023-08-20T08:20:38;10.63;;;9.73;;
14883;SDS011;7534;50.762;7.000;2023-08-20T08:23:03;12.60;;;8.65;;
14883;SDS011;7534;50.762;7.000;2023-08-20T08:25:29;12.30;;;9.60;;
14883;SDS011;7534;50.762;7.000;2023-08-20T08:27:55;8.30;;;7.60;;
14883;SDS011;7534;50.762;7.000;2023-08-20T08:30:21;8.45;;;7.65;;
14883;SDS011;7534;50.762;7.000;2023-08-20T08:32:47;8.98;;;8.18;;
14883;SDS011;7534;50.762;7.000;2023-08-20T08:35:13;9.32;;;8.52;;
14883;SDS011;7534;50.762;7.000;2023-08-20T08:37:39;8.18;;;7.47;;
14883;SDS011;7534;50.762;7.000;2023-08-20T08:40:05;9.77;;;8.25;;
14883;SDS011;7534;50.762;7.000;2023-08-20T08:42:32;8.93;;;8.10;;
14883;SDS011;7534;50.762;7.000;2023-08-20T08:45:01;7.22;;;6.50;;
14883;SDS011;7534;50.762;7.000;2023-08-20T08:47:29;6.82;;;6.32;;
14883;SDS011;7534;50.762;7.000;2023-08-20T08:49:55;8.10;;;7.30;;
14883;SDS011;7534;50.762;7.000;2023-08-20T08:52:25;7.00;;;6.38;;
14883;SDS011;7534;50.762;7.000;2023-08-20T08:54:52;8.70;;;7.75;;
14883;SDS011;7534;50.762;7.000;2023-08-20T08:57:18;8.02;;;7.22;;
14883;SDS011;7534;50.762;7.000;2023-08-20T08:59:44;10.55;;;9.63;;
14883;SDS011;7534;50.762;7.000;2023-08-20T09:02:11;7.45;;;6.75;;
14883;SDS011;7534;50.762;7.000;2023-08-20T09:04:41;6.85;;;6.28;;
14883;SDS011;7534;50.762;7.000;2023-08-20T09:07:11;7.30;;;6.70;;
14883;SDS011;7534;50.762;7.000;2023-08-20T09:09:41;8.85;;;6.38;;
14883;SDS011;7534;50.762;7.000;2023-08-20T09:12:15;6.80;;;6.15;;
14883;SDS011;7534;50.762;7.000;2023-08-20T09:14:48;7.40;;;6.70;;
14883;SDS011;7534;50.762;7.000;2023-08-20T09:17:16;6.60;;;5.57;;
14883;SDS011;7534;50.762;7.000;2023-08-20T09:19:44;7.30;;;4.78;;
14883;SDS011;7534;50.762;7.000;2023-08-20T09:22:14;5.28;;;4.78;;
14883;SDS011;7534;50.762;7.000;2023-08-20T09:27:11;8.73;;;5.13;;
14883;SDS011;7534;50.762;7.000;2023-08-20T09:29:45;5.38;;;4.80;;
14883;SDS011;7534;50.762;7.000;2023-08-20T09:32:16;5.40;;;4.90;;
14883;SDS011;7534;50.762;7.000;2023-08-20T09:34:49;5.35;;;4.85;;
14883;SDS011;7534;50.762;7.000;2023-08-20T09:37:17;6.28;;;5.18;;
14883;SDS011;7534;50.762;7.000;2023-08-20T09:39:45;6.35;;;4.97;;
14883;SDS011;7534;50.762;7.000;2023-08-20T09:42:12;5.10;;;4.70;;
14883;SDS011;7534;50.762;7.000;2023-08-20T09:44:40;5.07;;;4.68;;
14883;SDS011;7534;50.762;7.000;2023-08-20T09:47:12;5.47;;;5.07;;
14883;SDS011;7534;50.762;7.000;2023-08-20T09:49:41;6.10;;;5.30;;
14883;SDS011;7534;50.762;7.000;2023-08-20T09:52:12;6.13;;;5.70;;
14883;SDS011;7534;50.762;7.000;2023-08-20T09:57:45;6.90;;;6.30;;
14883;SDS011;7534;50.762;7.000;2023-08-20T10:00:13;7.25;;;5.88;;
14883;SDS011;7534;50.762;7.000;2023-08-20T10:02:43;7.20;;;6.50;;
14883;SDS011;7534;50.762;7.000;2023-08-20T10:05:09;6.82;;;6.22;;
14883;SDS011;7534;50.762;7.000;2023-08-20T10:07:37;6.70;;;6.07;;
14883;SDS011;7534;50.762;7.000;2023-08-20T10:10:05;6.68;;;6.00;;
14883;SDS011;7534;50.762;7.000;2023-08-20T10:12:34;7.13;;;6.50;;
14883;SDS011;7534;50.762;7.000;2023-08-20T10:15:01;6.32;;;5.72;;
14883;SDS011;7534;50.762;7.000;2023-08-20T10:17:32;6.80;;;6.10;;
14883;SDS011;7534;50.762;7.000;2023-08-20T10:20:00;6.97;;;6.35;;
14883;SDS011;7534;50.762;7.000;2023-08-20T10:25:09;6.60;;;6.00;;
14883;SDS011;7534;50.762;7.000;2023-08-20T10:27:49;6.97;;;6.13;;
14883;SDS011;7534;50.762;7.000;2023-08-20T10:30:25;6.65;;;6.00;;
14883;SDS011;7534;50.762;7.000;2023-08-20T10:32:52;6.32;;;5.80;;
14883;SDS011;7534;50.762;7.000;2023-08-20T10:35:27;7.25;;;6.65;;
14883;SDS011;7534;50.762;7.000;2023-08-20T10:38:12;8.25;;;7.45;;
14883;SDS011;7534;50.762;7.000;2023-08-20T10:43:33;8.02;;;7.43;;
14883;SDS011;7534;50.762;7.000;2023-08-20T10:46:03;7.95;;;7.22;;
14883;SDS011;7534;50.762;7.000;2023-08-20T10:48:38;7.90;;;7.20;;
14883;SDS011;7534;50.762;7.000;2023-08-20T10:51:06;8.55;;;7.75;;
14883;SDS011;7534;50.762;7.000;2023-08-20T10:56:48;8.05;;;7.35;;
14883;SDS011;7534;50.762;7.000;2023-08-20T10:59:23;8.13;;;7.38;;
14883;SDS011;7534;50.762;7.000;2023-08-20T11:01:55;9.13;;;8.23;;
14883;SDS011;7534;50.762;7.000;2023-08-20T11:04:24;9.48;;;8.48;;
14883;SDS011;7534;50.762;7.000;2023-08-20T11:06:57;8.38;;;7.50;;
14883;SDS011;7534;50.762;7.000;2023-08-20T11:09:25;11.82;;;10.32;;
14883;SDS011;7534;50.762;7.000;2023-08-20T11:11:53;7.65;;;6.93;;
14883;SDS011;7534;50.762;7.000;2023-08-20T11:14:21;8.93;;;7.93;;
14883;SDS011;7534;50.762;7.000;2023-08-20T11:16:49;9.13;;;7.57;;
14883;SDS011;7534;50.762;7.000;2023-08-20T11:19:19;8.80;;;8.00;;
14883;SDS011;7534;50.762;7.000;2023-08-20T11:21:47;8.27;;;7.57;;
14883;SDS011;7534;50.762;7.000;2023-08-20T11:24:14;9.00;;;8.10;;
14883;SDS011;7534;50.762;7.000;2023-08-20T11:26:41;8.60;;;7.90;;
14883;SDS011;7534;50.762;7.000;2023-08-20T11:29:09;8.93;;;8.13;;
14883;SDS011;7534;50.762;7.000;2023-08-20T11:31:56;9.65;;;8.80;;
14883;SDS011;7534;50.762;7.000;2023-08-20T11:34:55;8.93;;;8.02;;
14883;SDS011;7534;50.762;7.000;2023-08-20T11:37:30;12.32;;;9.20;;
14883;SDS011;7534;50.762;7.000;2023-08-20T11:54:59;9.18;;;8.27;;
14883;SDS011;7534;50.762;7.000;2023-08-20T11:57:28;9.90;;;9.02;;
14883;SDS011;7534;50.762;7.000;2023-08-20T12:00:03;10.75;;;9.20;;
14883;SDS011;7534;50.762;7.000;2023-08-20T12:02:34;9.18;;;8.38;;
14883;SDS011;7534;50.762;7.000;2023-08-20T12:05:00;9.10;;;8.23;;
14883;SDS011;7534;50.762;7.000;2023-08-20T12:07:26;9.10;;;8.20;;
14883;SDS011;7534;50.762;7.000;2023-08-20T12:09:53;9.18;;;8.18;;
14883;SDS011;7534;50.762;7.000;2023-08-20T12:12:20;7.82;;;7.20;;
14883;SDS011;7534;50.762;7.000;2023-08-20T12:14:47;7.70;;;7.10;;
14883;SDS011;7534;50.762;7.000;2023-08-20T12:17:18;7.55;;;6.90;;
14883;SDS011;7534;50.762;7.000;2023-08-20T12:19:45;8.70;;;7.90;;
14883;SDS011;7534;50.762;7.000;2023-08-20T12:22:12;8.30;;;7.55;;
14883;SDS011;7534;50.762;7.000;2023-08-20T12:24:46;8.23;;;7.53;;
14883;SDS011;7534;50.762;7.000;2023-08-20T12:27:21;8.90;;;8.15;;
14883;SDS011;7534;50.762;7.000;2023-08-20T12:29:50;9.90;;;8.65;;
14883;SDS011;7534;50.762;7.000;2023-08-20T12:32:20;8.77;;;8.07;;
14883;SDS011;7534;50.762;7.000;2023-08-20T12:34:46;9.27;;;8.57;;
14883;SDS011;7534;50.762;7.000;2023-08-20T12:37:20;8.95;;;8.23;;
14883;SDS011;7534;50.762;7.000;2023-08-20T12:39:52;8.30;;;7.70;;
14883;SDS011;7534;50.762;7.000;2023-08-20T12:42:24;7.88;;;7.25;;
14883;SDS011;7534;50.762;7.000;2023-08-20T12:45:02;8.38;;;7.68;;
14883;SDS011;7534;50.762;7.000;2023-08-20T12:48:22;9.23;;;8.32;;
14883;SDS011;7534;50.762;7.000;2023-08-20T12:50:51;8.60;;;7.90;;
14883;SDS011;7534;50.762;7.000;2023-08-20T12:53:48;8.73;;;8.02;;
14883;SDS011;7534;50.762;7.000;2023-08-20T12:56:20;8.27;;;7.57;;
14883;SDS011;7534;50.762;7.000;2023-08-20T12:58:51;9.27;;;8.40;;
14883;SDS011;7534;50.762;7.000;2023-08-20T13:01:20;8.75;;;8.05;;
14883;SDS011;7534;50.762;7.000;2023-08-20T13:03:46;8.20;;;7.43;;
14883;SDS011;7534;50.762;7.000;2023-08-20T13:06:16;8.00;;;7.30;;
14883;SDS011;7534;50.762;7.000;2023-08-20T13:09:00;7.38;;;6.78;;
14883;SDS011;7534;50.762;7.000;2023-08-20T13:11:38;7.88;;;7.15;;
14883;SDS011;7534;50.762;7.000;2023-08-20T13:14:05;7.97;;;7.20;;
14883;SDS011;7534;50.762;7.000;2023-08-20T13:28:32;7.55;;;6.90;;
14883;SDS011;7534;50.762;7.000;2023-08-20T13:35:04;7.50;;;6.80;;
14883;SDS011;7534;50.762;7.000;2023-08-20T13:45:15;7.45;;;6.68;;
14883;SDS011;7534;50.762;7.000;2023-08-20T13:55:31;6.85;;;6.25;;
14883;SDS011;7534;50.762;7.000;2023-08-20T14:10:02;6.60;;;6.00;;
14883;SDS011;7534;50.762;7.000;2023-08-20T14:17:06;6.40;;;5.90;;
14883;SDS011;7534;50.762;7.000;2023-08-20T14:20:15;5.97;;;5.47;;
14883;SDS011;7534;50.762;7.000;2023-08-20T14:23:40;6.45;;;5.90;;
14883;SDS011;7534;50.762;7.000;2023-08-20T14:26:51;6.80;;;6.30;;
14883;SDS011;7534;50.762;7.000;2023-08-20T14:32:42;6.30;;;5.70;;
14883;SDS011;7534;50.762;7.000;2023-08-20T14:35:31;6.18;;;5.68;;
14883;SDS011;7534;50.762;7.000;2023-08-20T14:37:58;7.13;;;5.57;;
14883;SDS011;7534;50.762;7.000;2023-08-20T14:40:35;6.35;;;5.75;;
14883;SDS011;7534;50.762;7.000;2023-08-20T14:43:28;6.30;;;5.70;;
14883;SDS011;7534;50.762;7.000;2023-08-20T14:45:55;5.95;;;5.45;;
14883;SDS011;7534;50.762;7.000;2023-08-20T14:48:27;6.30;;;5.80;;
14883;SDS011;7534;50.762;7.000;2023-08-20T14:51:35;5.90;;;5.40;;
14883;SDS011;7534;50.762;7.000;2023-08-20T14:57:47;15.95;;;14.30;;
14883;SDS011;7534;50.762;7.000;2023-08-20T15:00:18;6.95;;;6.25;;
14883;SDS011;7534;50.762;7.000;2023-08-20T15:02:49;10.38;;;6.40;;
14883;SDS011;7534;50.762;7.000;2023-08-20T15:08:05;6.32;;;5.78;;
14883;SDS011;7534;50.762;7.000;2023-08-20T15:10:57;7.05;;;6.00;;
14883;SDS011;7534;50.762;7.000;2023-08-20T15:16:50;6.20;;;5.45;;
14883;SDS011;7534;50.762;7.000;2023-08-20T15:19:18;6.07;;;5.50;;
14883;SDS011;7534;50.762;7.000;2023-08-20T15:24:47;6.53;;;5.95;;
14883;SDS011;7534;50.762;7.000;2023-08-20T15:27:37;5.88;;;5.35;;
14883;SDS011;7534;50.762;7.000;2023-08-20T15:30:25;6.05;;;5.55;;
14883;SDS011;7534;50.762;7.000;2023-08-20T15:32:51;5.70;;;5.20;;
14883;SDS011;7534;50.762;7.000;2023-08-20T15:35:16;5.60;;;5.20;;
14883;SDS011;7534;50.762;7.000;2023-08-20T15:37:42;5.97;;;5.53;;
14883;SDS011;7534;50.762;7.000;2023-08-20T15:40:09;6.05;;;5.47;;
14883;SDS011;7534;50.762;7.000;2023-08-20T15:42:40;6.03;;;5.43;;
14883;SDS011;7534;50.762;7.000;2023-08-20T15:45:06;6.20;;;5.60;;
14883;SDS011;7534;50.762;7.000;2023-08-20T15:47:33;5.93;;;5.47;;
14883;SDS011;7534;50.762;7.000;2023-08-20T15:49:59;6.45;;;5.75;;
14883;SDS011;7534;50.762;7.000;2023-08-20T15:52:26;6.13;;;5.53;;
14883;SDS011;7534;50.762;7.000;2023-08-20T15:54:52;6.00;;;5.50;;
14883;SDS011;7534;50.762;7.000;2023-08-20T15:57:18;6.82;;;6.22;;
14883;SDS011;7534;50.762;7.000;2023-08-20T15:59:47;5.85;;;5.35;;
14883;SDS011;7534;50.762;7.000;2023-08-20T16:02:13;7.15;;;5.53;;
14883;SDS011;7534;50.762;7.000;2023-08-20T16:04:39;7.68;;;5.50;;
14883;SDS011;7534;50.762;7.000;2023-08-20T16:07:05;6.38;;;5.78;;
14883;SDS011;7534;50.762;7.000;2023-08-20T16:09:33;5.72;;;5.20;;
14883;SDS011;7534;50.762;7.000;2023-08-20T16:12:01;6.20;;;5.70;;
14883;SDS011;7534;50.762;7.000;2023-08-20T16:14:27;5.70;;;5.20;;
14883;SDS011;7534;50.762;7.000;2023-08-20T16:16:53;5.72;;;5.20;;
14883;SDS011;7534;50.762;7.000;2023-08-20T16:19:19;5.88;;;5.22;;
14883;SDS011;7534;50.762;7.000;2023-08-20T16:21:46;5.68;;;5.18;;
14883;SDS011;7534;50.762;7.000;2023-08-20T16:24:12;5.85;;;5.25;;
14883;SDS011;7534;50.762;7.000;2023-08-20T16:26:38;9.13;;;5.85;;
14883;SDS011;7534;50.762;7.000;2023-08-20T16:29:04;6.95;;;5.15;;
14883;SDS011;7534;50.762;7.000;2023-08-20T16:31:30;6.57;;;5.82;;
14883;SDS011;7534;50.762;7.000;2023-08-20T16:41:08;6.32;;;5.38;;
14883;SDS011;7534;50.762;7.000;2023-08-20T16:44:45;6.03;;;5.43;;
14883;SDS011;7534;50.762;7.000;2023-08-20T16:48:09;5.80;;;4.90;;